createdAt,value
2022-09-01T00:00:55.049Z,94744.78
2022-09-01T00:03:38.466Z,94747.16
2022-09-01T00:06:24.233Z,94751.09
2022-09-01T00:09:11.422Z,94734.84
2022-09-01T00:11:56.118Z,94734.84
2022-09-01T00:14:42.132Z,94738.53
2022-09-01T00:17:25.278Z,94741.13
2022-09-01T00:20:10.132Z,94747.97
2022-09-01T00:22:53.226Z,94743.75
2022-09-01T00:25:37.181Z,94741.66
2022-09-01T00:28:20.452Z,94742.72
2022-09-01T00:31:06.499Z,94741.13
2022-09-01T00:33:50.706Z,94732.22
2022-09-01T00:36:33.870Z,94726.44
2022-09-01T00:39:17.360Z,94724.88
2022-09-01T00:42:01.183Z,94730.88
2022-09-01T00:44:44.289Z,94731.97
2022-09-01T00:47:30.798Z,94741.13
2022-09-01T00:50:16.307Z,94745.31
2022-09-01T00:52:59.775Z,94752.66
2022-09-01T00:55:43.321Z,94754.72
2022-09-01T00:58:27.221Z,94758.69
2022-09-01T01:01:12.405Z,94753.72
2022-09-01T01:03:57.729Z,94763.94
2022-09-01T01:06:41.018Z,94756.34
2022-09-01T01:09:24.311Z,94765.00
2022-09-01T01:12:07.975Z,94764.22
2022-09-01T01:14:51.879Z,94768.44
2022-09-01T01:17:35.096Z,94765.28
2022-09-01T01:20:40.357Z,94760.56
2022-09-01T01:23:32.257Z,94762.13
2022-09-01T01:26:16.739Z,94766.56
2022-09-01T01:29:03.173Z,94766.88
2022-09-01T01:31:48.235Z,94765.25
2022-09-01T01:34:32.069Z,94768.94
2022-09-01T01:37:15.355Z,94768.94
2022-09-01T01:39:58.485Z,94769.72
2022-09-01T01:42:44.309Z,94771.03
2022-09-01T01:45:27.386Z,94771.84
2022-09-01T01:48:10.867Z,94777.88
2022-09-01T01:50:56.030Z,94782.06
2022-09-01T01:53:39.841Z,94776.28
2022-09-01T01:56:25.655Z,94780.50
2022-09-01T01:59:16.593Z,94779.69
2022-09-01T02:02:04.021Z,94777.34
2022-09-01T02:04:47.302Z,94786.50
2022-09-01T02:07:32.997Z,94783.63
2022-09-01T02:10:17.150Z,94789.38
2022-09-01T02:13:03.704Z,94772.56
2022-09-01T02:15:50.761Z,94780.44
2022-09-01T02:18:37.231Z,94788.00
2022-09-01T02:21:22.717Z,94788.75
2022-09-01T02:24:08.593Z,94787.94
2022-09-01T02:26:52.363Z,94792.94
2022-09-01T02:29:38.624Z,94787.13
2022-09-01T02:32:28.851Z,94792.84
2022-09-01T02:35:13.585Z,94792.28
2022-09-01T02:38:01.071Z,94781.69
2022-09-01T02:40:46.974Z,94774.13
2022-09-01T02:43:31.729Z,94767.56
2022-09-01T02:46:15.594Z,94780.94
2022-09-01T02:49:00.825Z,94773.03
2022-09-01T02:51:45.809Z,94774.09
2022-09-01T02:54:30.058Z,94761.53
2022-09-01T02:57:14.002Z,94768.03
2022-09-01T02:59:59.059Z,94772.78
2022-09-01T03:02:42.210Z,94769.06
2022-09-01T03:05:29.823Z,94763.31
2022-09-01T03:08:16.517Z,94762.22
2022-09-01T03:11:01.560Z,94764.25
2022-09-01T03:13:45.188Z,94767.41
2022-09-01T03:16:30.509Z,94773.75
2022-09-01T03:19:14.562Z,94768.75
2022-09-01T03:22:00.310Z,94767.94
2022-09-01T03:24:43.491Z,94764.56
2022-09-01T03:27:26.804Z,94768.78
2022-09-01T03:30:10.817Z,94769.06
2022-09-01T03:32:54.623Z,94773.75
2022-09-01T03:35:38.171Z,94774.06
2022-09-01T03:38:24.620Z,94773.78
2022-09-01T03:41:09.423Z,94761.78
2022-09-01T03:43:55.133Z,94767.25
2022-09-01T03:46:40.487Z,94767.53
2022-09-01T03:49:28.807Z,94774.59
2022-09-01T03:52:13.594Z,94776.44
2022-09-01T03:55:01.027Z,94782.69
2022-09-01T03:57:47.605Z,94782.06
2022-09-01T04:00:34.998Z,94780.81
2022-09-01T04:03:28.283Z,94774.31
2022-09-01T04:06:13.036Z,94773.78
2022-09-01T04:08:56.929Z,94774.63
2022-09-01T04:11:45.767Z,94777.78
2022-09-01T04:14:36.592Z,94777.59
2022-09-01T04:17:37.152Z,94780.22
2022-09-01T04:20:22.557Z,94782.09
2022-09-01T04:23:11.088Z,94781.63
2022-09-01T04:25:59.995Z,94777.22
2022-09-01T04:28:47.421Z,94781.47
2022-09-01T04:31:32.018Z,94786.75
2022-09-01T04:34:15.397Z,94780.59
2022-09-01T04:36:59.018Z,94778.25
2022-09-01T04:39:51.261Z,94779.38
2022-09-01T04:42:37.682Z,94783.56
2022-09-01T04:45:29.090Z,94788.31
2022-09-01T04:48:12.389Z,94788.06
2022-09-01T04:50:56.732Z,94783.09
2022-09-01T04:53:40.885Z,94776.56
2022-09-01T04:56:24.515Z,94772.63
2022-09-01T04:59:08.327Z,94782.31
2022-09-01T05:01:54.401Z,94774.22
2022-09-01T05:04:38.542Z,94776.28
2022-09-01T05:07:23.743Z,94777.63
2022-09-01T05:10:07.840Z,94778.38
2022-09-01T05:12:52.494Z,94772.59
2022-09-01T05:15:35.832Z,94772.53
2022-09-01T05:18:23.503Z,94774.59
2022-09-01T05:21:11.236Z,94779.81
2022-09-01T05:23:54.482Z,94773.44
2022-09-01T05:26:38.622Z,94774.25
2022-09-01T05:29:21.818Z,94776.06
2022-09-01T05:32:08.971Z,94780.19
2022-09-01T05:34:53.763Z,94780.66
2022-09-01T05:37:38.665Z,94787.47
2022-09-01T05:40:22.128Z,94773.72
2022-09-01T05:43:05.334Z,94773.00
2022-09-01T05:46:05.668Z,94776.38
2022-09-01T05:48:52.574Z,94776.38
2022-09-01T05:51:46.476Z,94772.03
2022-09-01T05:54:34.113Z,94775.78
2022-09-01T05:57:33.901Z,94772.72
2022-09-01T06:00:18.185Z,94766.94
2022-09-01T06:03:02.998Z,94772.72
2022-09-01T06:05:48.445Z,94776.50
2022-09-01T06:08:33.028Z,94772.94
2022-09-01T06:11:17.765Z,94765.56
2022-09-01T06:14:01.430Z,94761.66
2022-09-01T06:16:47.405Z,94765.47
2022-09-01T06:19:34.807Z,94761.50
2022-09-01T06:22:20.742Z,94756.66
2022-09-01T06:25:06.800Z,94762.00
2022-09-01T06:27:50.165Z,94768.59
2022-09-01T06:30:36.519Z,94757.91
2022-09-01T06:33:21.231Z,94755.31
2022-09-01T06:36:05.483Z,94775.53
2022-09-01T06:38:48.728Z,94771.41
2022-09-01T06:41:33.304Z,94761.38
2022-09-01T06:44:22.676Z,94746.47
2022-09-01T06:47:06.203Z,94751.44
2022-09-01T06:49:53.617Z,94744.50
2022-09-01T06:55:49.270Z,94737.44
2022-09-01T06:58:35.132Z,94746.63
2022-09-01T07:01:20.520Z,94755.81
2022-09-01T07:04:04.101Z,94754.91
2022-09-01T07:07:00.221Z,94747.22
2022-09-01T07:09:49.935Z,94762.34
2022-09-01T07:19:01.386Z,94750.75
2022-09-01T07:22:06.650Z,94748.09
2022-09-01T07:25:11.481Z,94743.78
2022-09-01T07:27:51.795Z,94730.97
2022-09-01T07:30:43.470Z,94743.88
2022-09-01T07:33:49.087Z,94736.41
2022-09-01T07:37:15.156Z,94736.44
2022-09-01T07:39:52.587Z,94741.75
2022-09-01T07:45:58.305Z,94739.16
2022-09-01T07:51:51.858Z,94745.38
2022-09-01T07:54:37.435Z,94743.91
2022-09-01T07:57:23.042Z,94745.31
2022-09-01T08:00:08.498Z,94752.06
2022-09-01T08:02:57.130Z,94744.34
2022-09-01T08:05:41.886Z,94743.53
2022-09-01T08:08:29.036Z,94746.88
2022-09-01T08:11:21.912Z,94746.59
2022-09-01T08:14:12.831Z,94754.97
2022-09-01T08:16:56.716Z,94746.47
2022-09-01T08:19:41.352Z,94742.47
2022-09-01T08:22:26.065Z,94740.19
2022-09-01T08:25:11.095Z,94742.88
2022-09-01T08:27:59.686Z,94727.56
2022-09-01T08:30:47.166Z,94732.66
2022-09-01T08:33:35.843Z,94728.22
2022-09-01T08:36:23.706Z,94739.75
2022-09-01T08:39:09.619Z,94734.03
2022-09-01T08:42:04.238Z,94733.16
2022-09-01T08:44:57.827Z,94728.94
2022-09-01T08:48:04.777Z,94725.56
2022-09-01T08:50:51.154Z,94727.03
2022-09-01T08:53:40.019Z,94723.09
2022-09-01T08:56:25.056Z,94732.91
2022-09-01T08:59:10.859Z,94722.56
2022-09-01T09:02:02.421Z,94717.31
2022-09-01T09:05:01.616Z,94709.03
2022-09-01T09:08:07.266Z,94714.22
2022-09-01T09:10:59.935Z,94706.69
2022-09-01T09:13:59.256Z,94708.03
2022-09-01T09:16:43.857Z,94692.56
2022-09-01T09:19:30.642Z,94697.97
2022-09-01T09:22:16.779Z,94704.91
2022-09-01T09:25:08.277Z,94699.41
2022-09-01T09:28:00.544Z,94696.41
2022-09-01T09:30:45.834Z,94697.06
2022-09-01T09:33:51.181Z,94698.28
2022-09-01T09:36:36.662Z,94690.06
2022-09-01T09:39:20.211Z,94682.41
2022-09-01T09:42:09.136Z,94675.38
2022-09-01T09:44:53.116Z,94681.88
2022-09-01T09:47:44.622Z,94680.94
2022-09-01T09:50:30.507Z,94673.34
2022-09-01T09:53:19.953Z,94672.00
2022-09-01T09:56:10.562Z,94671.69
2022-09-01T09:58:54.686Z,94672.06
2022-09-01T10:01:38.102Z,94661.81
2022-09-01T10:04:39.898Z,94667.09
2022-09-01T10:07:33.598Z,94667.50
2022-09-01T10:10:30.543Z,94668.00
2022-09-01T10:13:17.819Z,94655.47
2022-09-01T10:16:03.736Z,94664.50
2022-09-01T10:18:51.348Z,94649.44
2022-09-01T10:21:39.162Z,94656.81
2022-09-01T10:24:30.986Z,94649.59
2022-09-01T10:27:19.939Z,94655.19
2022-09-01T10:30:12.642Z,94652.56
2022-09-01T10:33:11.686Z,94646.88
2022-09-01T10:36:02.449Z,94646.75
2022-09-01T10:38:53.668Z,94640.28
2022-09-01T10:41:53.264Z,94633.69
2022-09-01T10:44:58.100Z,94639.63
2022-09-01T10:47:41.367Z,94644.84
2022-09-01T10:50:29.496Z,94638.25
2022-09-01T10:53:38.961Z,94631.28
2022-09-01T10:56:43.669Z,94633.06
2022-09-01T10:59:31.509Z,94625.66
2022-09-01T11:05:20.585Z,94611.94
2022-09-01T11:08:26.137Z,94614.19
2022-09-01T11:11:24.074Z,94603.38
2022-09-01T11:14:20.027Z,94605.03
2022-09-01T11:17:17.403Z,94604.72
2022-09-01T11:20:11.200Z,94598.78
2022-09-01T11:23:03.497Z,94598.75
2022-09-01T11:26:18.581Z,94593.25
2022-09-01T11:28:51.842Z,94593.03
2022-09-01T11:31:43.238Z,94578.59
2022-09-01T11:34:28.523Z,94578.19
2022-09-01T11:37:17.537Z,94578.53
2022-09-01T11:40:03.899Z,94587.44
2022-09-01T11:42:48.490Z,94571.53
2022-09-01T11:45:34.811Z,94574.47
2022-09-01T11:48:19.575Z,94561.34
2022-09-01T11:51:05.355Z,94564.22
2022-09-01T11:53:51.659Z,94553.16
2022-09-01T11:56:35.162Z,94549.31
2022-09-01T11:59:32.639Z,94539.53
2022-09-01T12:02:21.304Z,94545.19
2022-09-01T12:05:26.793Z,94538.34
2022-09-01T12:08:15.204Z,94538.41
2022-09-01T12:11:05.737Z,94543.47
2022-09-01T12:13:57.577Z,94542.34
2022-09-01T12:16:43.227Z,94547.63
2022-09-01T12:19:28.767Z,94538.97
2022-09-01T12:22:19.793Z,94539.38
2022-09-01T12:25:03.029Z,94532.16
2022-09-01T12:27:46.255Z,94527.66
2022-09-01T12:30:29.951Z,94529.97
2022-09-01T12:33:23.615Z,94528.94
2022-09-01T12:36:32.186Z,94528.31
2022-09-01T12:39:24.180Z,94525.56
2022-09-01T12:42:12.923Z,94530.22
2022-09-01T12:44:58.775Z,94521.41
2022-09-01T12:47:51.751Z,94524.78
2022-09-01T12:50:47.022Z,94523.44
2022-09-01T12:53:36.603Z,94527.41
2022-09-01T12:56:33.060Z,94525.22
2022-09-01T12:59:33.662Z,94523.78
2022-09-01T13:02:35.146Z,94512.91
2022-09-01T13:05:41.894Z,94511.50
2022-09-01T13:08:28.475Z,94520.72
2022-09-01T13:11:21.839Z,94511.28
2022-09-01T13:14:06.659Z,94511.97
2022-09-01T13:16:49.797Z,94516.00
2022-09-01T13:19:33.231Z,94505.63
2022-09-01T13:22:16.349Z,94507.66
2022-09-01T13:25:00.351Z,94495.69
2022-09-01T13:27:44.526Z,94503.91
2022-09-01T13:30:30.055Z,94502.13
2022-09-01T13:33:21.015Z,94509.50
2022-09-01T13:36:42.964Z,94508.38
2022-09-01T13:39:12.132Z,94509.44
2022-09-01T13:41:55.343Z,94514.41
2022-09-01T13:44:38.461Z,94511.34
2022-09-01T13:47:31.868Z,94517.06
2022-09-01T13:50:23.720Z,94512.13
2022-09-01T13:53:08.274Z,94517.34
2022-09-01T13:55:51.644Z,94517.09
2022-09-01T13:58:34.800Z,94523.75
2022-09-01T14:01:17.987Z,94527.56
2022-09-01T14:04:06.139Z,94524.22
2022-09-01T14:06:49.300Z,94531.75
2022-09-01T14:09:32.453Z,94528.25
2022-09-01T14:12:15.561Z,94530.44
2022-09-01T14:15:17.590Z,94527.56
2022-09-01T14:18:02.392Z,94516.22
2022-09-01T14:20:51.057Z,94532.72
2022-09-01T14:23:34.178Z,94523.72
2022-09-01T14:26:18.053Z,94525.84
2022-09-01T14:29:01.972Z,94522.66
2022-09-01T14:31:45.293Z,94517.53
2022-09-01T14:34:28.394Z,94522.13
2022-09-01T14:37:12.876Z,94521.34
2022-09-01T14:39:58.726Z,94519.19
2022-09-01T14:42:43.824Z,94521.53
2022-09-01T14:45:29.070Z,94520.16
2022-09-01T14:48:12.625Z,94527.06
2022-09-01T14:50:55.732Z,94513.16
2022-09-01T14:53:40.658Z,94509.91
2022-09-01T14:56:24.959Z,94511.13
2022-09-01T14:59:09.042Z,94517.56
2022-09-01T15:01:52.730Z,94510.88
2022-09-01T15:04:36.190Z,94518.97
2022-09-01T15:07:19.582Z,94510.84
2022-09-01T15:10:04.282Z,94514.13
2022-09-01T15:12:47.382Z,94526.75
2022-09-01T15:15:31.430Z,94531.38
2022-09-01T15:18:14.659Z,94538.06
2022-09-01T15:20:57.890Z,94524.34
2022-09-01T15:23:41.006Z,94528.25
2022-09-01T15:26:25.499Z,94515.31
2022-09-01T15:29:13.268Z,94508.78
2022-09-01T15:31:56.642Z,94507.25
2022-09-01T15:34:40.219Z,94516.47
2022-09-01T15:37:23.350Z,94515.69
2022-09-01T15:40:09.016Z,94521.91
2022-09-01T15:42:54.819Z,94530.53
2022-09-01T15:45:39.105Z,94544.06
2022-09-01T15:48:22.176Z,94543.13
2022-09-01T15:51:29.508Z,94546.66
2022-09-01T15:54:16.618Z,94556.94
2022-09-01T15:56:59.710Z,94553.50
2022-09-01T15:59:45.482Z,94556.63
2022-09-01T16:02:28.651Z,94562.34
2022-09-01T16:05:12.542Z,94568.66
2022-09-01T16:10:44.100Z,94572.78
2022-09-01T16:13:27.946Z,94570.88
2022-09-01T16:16:30.968Z,94569.78
2022-09-01T16:19:25.072Z,94571.47
2022-09-01T16:22:17.661Z,94570.47
2022-09-01T16:25:02.960Z,94569.28
2022-09-01T16:27:46.941Z,94571.16
2022-09-01T16:30:30.963Z,94561.06
2022-09-01T16:33:20.099Z,94566.97
2022-09-01T16:36:17.879Z,94582.44
2022-09-01T16:39:08.750Z,94587.84
2022-09-01T16:42:01.472Z,94603.22
2022-09-01T16:44:57.891Z,94597.06
2022-09-01T16:47:59.252Z,94601.59
2022-09-01T16:50:52.876Z,94596.59
2022-09-01T16:54:02.557Z,94585.06
2022-09-01T16:56:54.227Z,94579.06
2022-09-01T16:59:51.857Z,94583.97
2022-09-01T17:02:51.206Z,94589.47
2022-09-01T17:05:41.165Z,94582.97
2022-09-01T17:08:31.644Z,94587.28
2022-09-01T17:11:23.617Z,94588.44
2022-09-01T17:14:09.918Z,94585.31
2022-09-01T17:16:57.778Z,94589.31
2022-09-01T17:19:43.218Z,94597.00
2022-09-01T17:22:27.116Z,94592.69
2022-09-01T17:25:24.362Z,94593.81
2022-09-01T17:28:11.581Z,94604.28
2022-09-01T17:31:04.322Z,94598.22
2022-09-01T17:34:03.174Z,94594.59
2022-09-01T17:36:58.355Z,94607.31
2022-09-01T17:39:51.024Z,94601.81
2022-09-01T17:42:43.461Z,94610.09
2022-09-01T17:45:31.668Z,94610.19
2022-09-01T17:48:20.787Z,94605.06
2022-09-01T17:51:11.392Z,94614.69
2022-09-01T17:54:05.575Z,94610.88
2022-09-01T17:56:54.814Z,94609.09
2022-09-01T17:59:48.683Z,94614.50
2022-09-01T18:02:51.423Z,94612.94
2022-09-01T18:05:41.915Z,94610.84
2022-09-01T18:08:40.280Z,94607.22
2022-09-01T18:11:33.660Z,94613.03
2022-09-01T18:14:19.289Z,94611.03
2022-09-01T18:17:09.757Z,94616.66
2022-09-01T18:19:58.571Z,94612.19
2022-09-01T18:22:48.252Z,94625.91
2022-09-01T18:25:38.954Z,94623.28
2022-09-01T18:28:22.257Z,94625.44
2022-09-01T18:31:21.427Z,94631.31
2022-09-01T18:34:15.133Z,94628.69
2022-09-01T18:37:02.986Z,94630.81
2022-09-01T18:39:54.501Z,94622.06
2022-09-01T18:42:43.813Z,94617.56
2022-09-01T18:45:39.784Z,94625.44
2022-09-01T18:51:32.453Z,94627.97
2022-09-01T18:54:19.800Z,94629.91
2022-09-01T18:57:04.813Z,94626.31
2022-09-01T19:00:16.890Z,94638.00
2022-09-01T19:03:14.980Z,94639.34
2022-09-01T19:06:30.736Z,94637.22
2022-09-01T19:09:22.226Z,94631.38
2022-09-01T19:12:17.041Z,94637.31
2022-09-01T19:15:10.165Z,94631.28
2022-09-01T19:18:14.611Z,94634.19
2022-09-01T19:21:07.723Z,94643.13
2022-09-01T19:24:00.607Z,94643.72
2022-09-01T19:26:50.406Z,94644.25
2022-09-01T19:29:39.983Z,94651.16
2022-09-01T19:32:27.121Z,94648.06
2022-09-01T19:35:13.771Z,94650.66
2022-09-01T19:37:56.955Z,94658.59
2022-09-01T19:40:46.369Z,94657.81
2022-09-01T19:43:36.435Z,94654.34
2022-09-01T19:46:27.097Z,94658.75
2022-09-01T19:49:18.994Z,94662.06
2022-09-01T19:52:10.748Z,94673.94
2022-09-01T19:55:00.977Z,94673.13
2022-09-01T19:57:52.023Z,94670.22
2022-09-01T20:00:53.539Z,94663.38
2022-09-01T20:03:40.540Z,94662.84
2022-09-01T20:06:33.624Z,94667.78
2022-09-01T20:09:21.202Z,94666.97
2022-09-01T20:12:16.217Z,94667.50
2022-09-01T20:15:08.372Z,94666.22
2022-09-01T20:17:57.119Z,94666.81
2022-09-01T20:20:46.397Z,94662.06
2022-09-01T20:23:33.961Z,94661.06
2022-09-01T20:26:22.297Z,94659.31
2022-09-01T20:29:11.985Z,94646.22
2022-09-01T20:31:59.930Z,94660.09
2022-09-01T20:34:47.193Z,94662.66
2022-09-01T20:37:35.653Z,94665.78
2022-09-01T20:40:24.824Z,94658.47
2022-09-01T20:43:18.601Z,94656.41
2022-09-01T20:46:01.776Z,94659.50
2022-09-01T20:48:46.873Z,94663.19
2022-09-01T20:51:39.414Z,94655.31
2022-09-01T20:54:33.191Z,94653.78
2022-09-01T20:57:30.433Z,94652.75
2022-09-01T21:00:19.176Z,94654.91
2022-09-01T21:03:12.131Z,94646.25
2022-09-01T21:06:01.232Z,94656.44
2022-09-01T21:08:50.102Z,94659.13
2022-09-01T21:11:42.394Z,94663.84
2022-09-01T21:14:38.850Z,94662.81
2022-09-01T21:17:31.733Z,94659.91
2022-09-01T21:20:23.137Z,94665.50
2022-09-01T21:23:07.634Z,94668.69
2022-09-01T21:25:50.987Z,94678.13
2022-09-01T21:28:35.354Z,94682.84
2022-09-01T21:31:19.426Z,94672.78
2022-09-01T21:34:02.614Z,94676.69
2022-09-01T21:36:45.732Z,94680.63
2022-09-01T21:39:30.325Z,94686.16
2022-09-01T21:42:14.828Z,94688.97
2022-09-01T21:44:59.871Z,94688.84
2022-09-01T21:47:49.372Z,94687.78
2022-09-01T21:50:32.606Z,94690.44
2022-09-01T21:53:16.065Z,94693.50
2022-09-01T21:56:01.300Z,94688.19
2022-09-01T21:58:44.540Z,94691.31
2022-09-01T22:01:36.369Z,94694.19
2022-09-01T22:04:19.694Z,94689.19
2022-09-01T22:07:02.979Z,94686.00
2022-09-01T22:09:47.624Z,94679.66
2022-09-01T22:12:32.370Z,94678.56
2022-09-01T22:15:19.387Z,94677.94
2022-09-01T22:18:02.633Z,94679.00
2022-09-01T22:20:46.573Z,94680.06
2022-09-01T22:23:29.926Z,94675.31
2022-09-01T22:26:21.338Z,94667.41
2022-09-01T22:29:08.347Z,94666.34
2022-09-01T22:31:51.547Z,94666.81
2022-09-01T22:34:35.060Z,94667.69
2022-09-01T22:37:18.914Z,94669.47
2022-09-01T22:40:02.363Z,94672.38
2022-09-01T22:42:46.088Z,94664.72
2022-09-01T22:45:31.536Z,94658.94
2022-09-01T22:48:15.509Z,94655.25
2022-09-01T22:50:58.775Z,94652.16
2022-09-01T22:53:44.671Z,94658.03
2022-09-01T22:56:29.502Z,94658.03
2022-09-01T22:59:15.429Z,94664.25
2022-09-01T23:02:02.016Z,94650.41
2022-09-01T23:04:46.719Z,94658.81
2022-09-01T23:07:30.025Z,94656.75
2022-09-01T23:10:13.335Z,94653.66
2022-09-01T23:12:56.776Z,94647.06
2022-09-01T23:15:39.917Z,94640.50
2022-09-01T23:18:24.922Z,94644.16
2022-09-01T23:21:09.193Z,94651.00
2022-09-01T23:23:58.475Z,94637.88
2022-09-01T23:26:42.060Z,94639.34
2022-09-01T23:29:25.788Z,94636.81
2022-09-01T23:32:09.008Z,94625.56
2022-09-01T23:34:53.679Z,94623.19
2022-09-01T23:37:36.819Z,94620.63
2022-09-01T23:40:20.361Z,94617.50
2022-09-01T23:43:03.573Z,94631.34
2022-09-01T23:45:48.866Z,94630.78
2022-09-01T23:48:32.253Z,94636.06
2022-09-01T23:51:18.197Z,94628.38
2022-09-01T23:54:02.165Z,94625.38
2022-09-01T23:56:47.025Z,94628.53
2022-09-01T23:59:30.355Z,94624.94
